sensor_id;sensor_type;location;lat;lon;timestamp;temperature;humidity
25112;DHT22;13092;51.996;4.458;2023-05-10T00:01:46;13.60;99.90
25112;DHT22;13092;51.996;4.458;2023-05-10T00:04:16;13.40;99.90
25112;DHT22;13092;51.996;4.458;2023-05-10T00:06:44;13.70;99.90
25112;DHT22;13092;51.996;4.458;2023-05-10T00:09:12;13.50;99.90
25112;DHT22;13092;51.996;4.458;2023-05-10T00:11:42;13.50;99.90
25112;DHT22;13092;51.996;4.458;2023-05-10T00:14:14;13.60;99.90
25112;DHT22;13092;51.996;4.458;2023-05-10T00:16:42;13.20;99.90
25112;DHT22;13092;51.996;4.458;2023-05-10T00:19:10;13.50;99.90
25112;DHT22;13092;51.996;4.458;2023-05-10T00:21:38;13.50;99.90
25112;DHT22;13092;51.996;4.458;2023-05-10T00:24:06;13.50;99.90
25112;DHT22;13092;51.996;4.458;2023-05-10T00:26:35;13.50;99.90
25112;DHT22;13092;51.996;4.458;2023-05-10T00:29:05;13.40;99.90
25112;DHT22;13092;51.996;4.458;2023-05-10T00:31:33;13.50;99.90
25112;DHT22;13092;51.996;4.458;2023-05-10T00:34:01;13.50;99.90
25112;DHT22;13092;51.996;4.458;2023-05-10T00:36:29;13.80;99.90
25112;DHT22;13092;51.996;4.458;2023-05-10T00:38:58;13.60;99.90
25112;DHT22;13092;51.996;4.458;2023-05-10T00:41:26;13.60;99.90
25112;DHT22;13092;51.996;4.458;2023-05-10T00:43:54;13.60;99.90
25112;DHT22;13092;51.996;4.458;2023-05-10T00:46:25;13.60;99.90
25112;DHT22;13092;51.996;4.458;2023-05-10T00:48:54;13.70;99.90
25112;DHT22;13092;51.996;4.458;2023-05-10T00:51:24;13.60;99.90
25112;DHT22;13092;51.996;4.458;2023-05-10T00:53:53;13.60;99.90
25112;DHT22;13092;51.996;4.458;2023-05-10T00:56:22;13.60;99.90
25112;DHT22;13092;51.996;4.458;2023-05-10T00:58:51;13.80;99.90
25112;DHT22;13092;51.996;4.458;2023-05-10T01:01:19;13.60;99.90
25112;DHT22;13092;51.996;4.458;2023-05-10T01:03:49;13.60;99.90
25112;DHT22;13092;51.996;4.458;2023-05-10T01:06:19;13.60;99.90
25112;DHT22;13092;51.996;4.458;2023-05-10T01:08:47;13.60;99.90
25112;DHT22;13092;51.996;4.458;2023-05-10T01:11:15;13.50;99.90
25112;DHT22;13092;51.996;4.458;2023-05-10T01:13:50;13.60;99.90
25112;DHT22;13092;51.996;4.458;2023-05-10T01:16:20;13.90;99.90
25112;DHT22;13092;51.996;4.458;2023-05-10T01:18:58;13.70;99.90
25112;DHT22;13092;51.996;4.458;2023-05-10T01:21:36;13.70;99.90
25112;DHT22;13092;51.996;4.458;2023-05-10T01:24:17;13.70;99.90
25112;DHT22;13092;51.996;4.458;2023-05-10T01:27:07;13.80;99.90
25112;DHT22;13092;51.996;4.458;2023-05-10T01:30:05;14.00;99.90
25112;DHT22;13092;51.996;4.458;2023-05-10T01:32:48;14.00;99.90
25112;DHT22;13092;51.996;4.458;2023-05-10T01:35:25;14.00;99.90
25112;DHT22;13092;51.996;4.458;2023-05-10T01:38:02;13.70;99.90
25112;DHT22;13092;51.996;4.458;2023-05-10T01:40:37;13.90;99.90
25112;DHT22;13092;51.996;4.458;2023-05-10T01:43:13;13.90;99.90
25112;DHT22;13092;51.996;4.458;2023-05-10T01:45:49;13.90;99.90
25112;DHT22;13092;51.996;4.458;2023-05-10T01:48:20;13.90;99.90
25112;DHT22;13092;51.996;4.458;2023-05-10T01:50:51;13.80;99.90
25112;DHT22;13092;51.996;4.458;2023-05-10T01:53:21;13.80;99.90
25112;DHT22;13092;51.996;4.458;2023-05-10T01:55:53;13.80;99.90
25112;DHT22;13092;51.996;4.458;2023-05-10T01:58:25;13.90;99.90
25112;DHT22;13092;51.996;4.458;2023-05-10T02:00:56;13.90;99.90
25112;DHT22;13092;51.996;4.458;2023-05-10T02:03:28;14.00;99.90
25112;DHT22;13092;51.996;4.458;2023-05-10T02:05:59;14.10;99.90
25112;DHT22;13092;51.996;4.458;2023-05-10T02:08:28;14.00;99.90
25112;DHT22;13092;51.996;4.458;2023-05-10T02:10:57;14.00;99.90
25112;DHT22;13092;51.996;4.458;2023-05-10T02:13:27;14.10;99.90
25112;DHT22;13092;51.996;4.458;2023-05-10T02:16:00;14.10;99.90
25112;DHT22;13092;51.996;4.458;2023-05-10T02:18:31;14.10;99.90
25112;DHT22;13092;51.996;4.458;2023-05-10T02:21:01;13.90;99.90
25112;DHT22;13092;51.996;4.458;2023-05-10T02:23:30;14.10;99.90
25112;DHT22;13092;51.996;4.458;2023-05-10T02:26:00;14.10;99.90
25112;DHT22;13092;51.996;4.458;2023-05-10T02:28:29;14.10;99.90
25112;DHT22;13092;51.996;4.458;2023-05-10T02:30:59;14.10;99.90
25112;DHT22;13092;51.996;4.458;2023-05-10T02:33:28;14.30;99.90
25112;DHT22;13092;51.996;4.458;2023-05-10T02:35:59;14.10;99.90
25112;DHT22;13092;51.996;4.458;2023-05-10T02:38:28;14.10;99.90
25112;DHT22;13092;51.996;4.458;2023-05-10T02:40:59;14.10;99.90
25112;DHT22;13092;51.996;4.458;2023-05-10T02:43:30;14.40;99.90
25112;DHT22;13092;51.996;4.458;2023-05-10T02:46:01;14.10;99.90
25112;DHT22;13092;51.996;4.458;2023-05-10T02:48:29;14.10;99.90
25112;DHT22;13092;51.996;4.458;2023-05-10T02:51:05;14.30;99.90
25112;DHT22;13092;51.996;4.458;2023-05-10T02:53:38;14.10;99.90
25112;DHT22;13092;51.996;4.458;2023-05-10T02:56:12;14.10;99.90
25112;DHT22;13092;51.996;4.458;2023-05-10T02:58:42;14.10;99.90
25112;DHT22;13092;51.996;4.458;2023-05-10T03:01:10;14.00;99.90
25112;DHT22;13092;51.996;4.458;2023-05-10T03:03:38;14.00;99.90
25112;DHT22;13092;51.996;4.458;2023-05-10T03:06:09;14.20;99.90
25112;DHT22;13092;51.996;4.458;2023-05-10T03:08:37;13.80;99.90
25112;DHT22;13092;51.996;4.458;2023-05-10T03:11:21;14.30;99.90
25112;DHT22;13092;51.996;4.458;2023-05-10T03:14:01;14.00;99.90
25112;DHT22;13092;51.996;4.458;2023-05-10T03:16:34;14.00;99.90
25112;DHT22;13092;51.996;4.458;2023-05-10T03:19:10;14.00;99.90
25112;DHT22;13092;51.996;4.458;2023-05-10T03:21:42;14.00;99.90
25112;DHT22;13092;51.996;4.458;2023-05-10T03:24:13;14.00;99.90
25112;DHT22;13092;51.996;4.458;2023-05-10T03:26:43;13.90;99.90
25112;DHT22;13092;51.996;4.458;2023-05-10T03:29:13;13.90;99.90
25112;DHT22;13092;51.996;4.458;2023-05-10T03:31:44;13.80;99.90
25112;DHT22;13092;51.996;4.458;2023-05-10T03:34:12;13.80;99.90
25112;DHT22;13092;51.996;4.458;2023-05-10T03:36:42;13.80;99.90
25112;DHT22;13092;51.996;4.458;2023-05-10T03:39:10;13.80;99.90
25112;DHT22;13092;51.996;4.458;2023-05-10T03:41:39;14.00;99.90
25112;DHT22;13092;51.996;4.458;2023-05-10T03:44:07;14.00;99.90
25112;DHT22;13092;51.996;4.458;2023-05-10T03:46:35;13.80;99.90
25112;DHT22;13092;51.996;4.458;2023-05-10T03:49:03;13.90;99.90
25112;DHT22;13092;51.996;4.458;2023-05-10T03:51:32;13.80;99.90
25112;DHT22;13092;51.996;4.458;2023-05-10T03:54:02;13.80;99.90
25112;DHT22;13092;51.996;4.458;2023-05-10T03:56:31;13.70;99.90
25112;DHT22;13092;51.996;4.458;2023-05-10T03:58:59;13.70;99.90
25112;DHT22;13092;51.996;4.458;2023-05-10T04:01:27;13.60;99.90
25112;DHT22;13092;51.996;4.458;2023-05-10T04:03:56;13.70;99.90
25112;DHT22;13092;51.996;4.458;2023-05-10T04:06:28;13.60;99.90
25112;DHT22;13092;51.996;4.458;2023-05-10T04:08:57;13.80;99.90
25112;DHT22;13092;51.996;4.458;2023-05-10T04:11:32;13.60;99.90
25112;DHT22;13092;51.996;4.458;2023-05-10T04:14:02;13.60;99.90
25112;DHT22;13092;51.996;4.458;2023-05-10T04:16:31;13.50;99.90
25112;DHT22;13092;51.996;4.458;2023-05-10T04:18:59;13.70;99.90
25112;DHT22;13092;51.996;4.458;2023-05-10T04:21:30;13.60;99.90
25112;DHT22;13092;51.996;4.458;2023-05-10T04:24:01;13.50;99.90
25112;DHT22;13092;51.996;4.458;2023-05-10T04:26:29;13.50;99.90
25112;DHT22;13092;51.996;4.458;2023-05-10T04:28:59;13.40;99.90
25112;DHT22;13092;51.996;4.458;2023-05-10T04:31:28;13.40;99.90
25112;DHT22;13092;51.996;4.458;2023-05-10T04:33:56;13.30;99.90
25112;DHT22;13092;51.996;4.458;2023-05-10T04:36:25;13.30;99.90
25112;DHT22;13092;51.996;4.458;2023-05-10T04:38:53;13.20;99.90
25112;DHT22;13092;51.996;4.458;2023-05-10T04:41:25;13.20;99.90
25112;DHT22;13092;51.996;4.458;2023-05-10T04:43:59;13.20;99.90
25112;DHT22;13092;51.996;4.458;2023-05-10T04:46:28;13.10;99.90
25112;DHT22;13092;51.996;4.458;2023-05-10T04:48:56;13.20;99.90
25112;DHT22;13092;51.996;4.458;2023-05-10T04:51:26;13.10;99.90
25112;DHT22;13092;51.996;4.458;2023-05-10T04:53:59;13.10;99.90
25112;DHT22;13092;51.996;4.458;2023-05-10T04:56:32;13.00;99.90
25112;DHT22;13092;51.996;4.458;2023-05-10T04:59:02;13.20;99.90
25112;DHT22;13092;51.996;4.458;2023-05-10T05:01:31;13.10;99.90
25112;DHT22;13092;51.996;4.458;2023-05-10T05:03:59;13.40;99.90
25112;DHT22;13092;51.996;4.458;2023-05-10T05:06:28;13.20;99.90
25112;DHT22;13092;51.996;4.458;2023-05-10T05:08:56;13.20;99.90
25112;DHT22;13092;51.996;4.458;2023-05-10T05:11:24;13.30;99.90
25112;DHT22;13092;51.996;4.458;2023-05-10T05:13:53;13.10;99.90
25112;DHT22;13092;51.996;4.458;2023-05-10T05:16:23;13.20;99.90
25112;DHT22;13092;51.996;4.458;2023-05-10T05:18:51;13.30;99.90
25112;DHT22;13092;51.996;4.458;2023-05-10T05:21:20;13.20;99.90
25112;DHT22;13092;51.996;4.458;2023-05-10T05:23:52;13.30;99.90
25112;DHT22;13092;51.996;4.458;2023-05-10T05:26:20;13.20;99.90
25112;DHT22;13092;51.996;4.458;2023-05-10T05:28:49;13.40;99.90
25112;DHT22;13092;51.996;4.458;2023-05-10T05:31:20;13.30;99.90
25112;DHT22;13092;51.996;4.458;2023-05-10T05:33:52;13.50;99.90
25112;DHT22;13092;51.996;4.458;2023-05-10T05:36:21;13.40;99.90
25112;DHT22;13092;51.996;4.458;2023-05-10T05:38:50;13.40;99.90
25112;DHT22;13092;51.996;4.458;2023-05-10T05:41:18;13.50;99.90
25112;DHT22;13092;51.996;4.458;2023-05-10T05:43:50;13.50;99.90
25112;DHT22;13092;51.996;4.458;2023-05-10T05:46:18;13.50;99.90
25112;DHT22;13092;51.996;4.458;2023-05-10T05:48:47;13.40;99.90
25112;DHT22;13092;51.996;4.458;2023-05-10T05:51:17;13.50;99.90
25112;DHT22;13092;51.996;4.458;2023-05-10T05:53:48;13.60;99.90
25112;DHT22;13092;51.996;4.458;2023-05-10T05:56:18;13.80;99.90
25112;DHT22;13092;51.996;4.458;2023-05-10T05:58:51;13.50;99.90
25112;DHT22;13092;51.996;4.458;2023-05-10T06:01:23;13.60;99.90
25112;DHT22;13092;51.996;4.458;2023-05-10T06:03:51;13.60;99.90
25112;DHT22;13092;51.996;4.458;2023-05-10T06:06:21;13.80;99.90
25112;DHT22;13092;51.996;4.458;2023-05-10T06:08:55;13.70;99.90
25112;DHT22;13092;51.996;4.458;2023-05-10T06:11:24;13.70;99.90
25112;DHT22;13092;51.996;4.458;2023-05-10T06:13:53;13.90;99.90
25112;DHT22;13092;51.996;4.458;2023-05-10T06:16:22;14.00;99.90
25112;DHT22;13092;51.996;4.458;2023-05-10T06:18:50;14.00;99.90
25112;DHT22;13092;51.996;4.458;2023-05-10T06:21:19;14.30;99.90
25112;DHT22;13092;51.996;4.458;2023-05-10T06:23:49;14.30;99.90
25112;DHT22;13092;51.996;4.458;2023-05-10T06:26:17;14.40;99.90
25112;DHT22;13092;51.996;4.458;2023-05-10T06:28:46;14.50;99.90
25112;DHT22;13092;51.996;4.458;2023-05-10T06:31:14;14.50;99.90
25112;DHT22;13092;51.996;4.458;2023-05-10T06:33:50;14.40;99.90
25112;DHT22;13092;51.996;4.458;2023-05-10T06:36:30;14.60;99.90
25112;DHT22;13092;51.996;4.458;2023-05-10T06:39:00;14.60;99.90
25112;DHT22;13092;51.996;4.458;2023-05-10T06:41:32;14.60;99.90
25112;DHT22;13092;51.996;4.458;2023-05-10T06:44:00;14.50;99.90
25112;DHT22;13092;51.996;4.458;2023-05-10T06:46:32;14.60;99.90
25112;DHT22;13092;51.996;4.458;2023-05-10T06:49:01;14.50;99.90
25112;DHT22;13092;51.996;4.458;2023-05-10T06:51:29;14.70;99.90
25112;DHT22;13092;51.996;4.458;2023-05-10T06:54:02;14.80;99.90
25112;DHT22;13092;51.996;4.458;2023-05-10T06:56:30;14.80;99.90
25112;DHT22;13092;51.996;4.458;2023-05-10T06:58:58;14.90;99.90
25112;DHT22;13092;51.996;4.458;2023-05-10T07:01:29;14.80;99.90
25112;DHT22;13092;51.996;4.458;2023-05-10T07:03:57;14.90;99.90
25112;DHT22;13092;51.996;4.458;2023-05-10T07:06:25;14.90;99.90
25112;DHT22;13092;51.996;4.458;2023-05-10T07:08:59;15.20;99.90
25112;DHT22;13092;51.996;4.458;2023-05-10T07:11:29;14.80;99.90
25112;DHT22;13092;51.996;4.458;2023-05-10T07:13:58;15.00;99.90
25112;DHT22;13092;51.996;4.458;2023-05-10T07:16:26;15.10;99.90
25112;DHT22;13092;51.996;4.458;2023-05-10T07:19:00;15.20;99.90
25112;DHT22;13092;51.996;4.458;2023-05-10T07:21:29;15.20;99.90
25112;DHT22;13092;51.996;4.458;2023-05-10T07:23:58;15.20;99.90
25112;DHT22;13092;51.996;4.458;2023-05-10T07:26:27;15.00;99.90
25112;DHT22;13092;51.996;4.458;2023-05-10T07:29:02;15.30;99.90
25112;DHT22;13092;51.996;4.458;2023-05-10T07:31:30;15.30;99.90
25112;DHT22;13092;51.996;4.458;2023-05-10T07:33:58;15.30;99.90
25112;DHT22;13092;51.996;4.458;2023-05-10T07:36:26;15.50;99.90
25112;DHT22;13092;51.996;4.458;2023-05-10T07:38:56;15.20;99.90
25112;DHT22;13092;51.996;4.458;2023-05-10T07:41:27;15.30;99.90
25112;DHT22;13092;51.996;4.458;2023-05-10T07:44:00;15.20;99.90
25112;DHT22;13092;51.996;4.458;2023-05-10T07:46:28;15.20;99.90
25112;DHT22;13092;51.996;4.458;2023-05-10T07:48:57;15.30;99.90
25112;DHT22;13092;51.996;4.458;2023-05-10T07:51:25;15.30;99.90
25112;DHT22;13092;51.996;4.458;2023-05-10T07:53:54;15.40;99.90
25112;DHT22;13092;51.996;4.458;2023-05-10T07:56:27;15.40;99.90
25112;DHT22;13092;51.996;4.458;2023-05-10T07:59:01;15.40;99.90
25112;DHT22;13092;51.996;4.458;2023-05-10T08:01:34;15.40;99.90
25112;DHT22;13092;51.996;4.458;2023-05-10T08:04:17;15.40;99.90
25112;DHT22;13092;51.996;4.458;2023-05-10T08:06:51;15.40;99.90
25112;DHT22;13092;51.996;4.458;2023-05-10T08:09:19;15.40;99.90
25112;DHT22;13092;51.996;4.458;2023-05-10T08:11:53;15.50;99.90
25112;DHT22;13092;51.996;4.458;2023-05-10T08:14:29;15.40;99.90
25112;DHT22;13092;51.996;4.458;2023-05-10T08:17:02;15.40;99.90
25112;DHT22;13092;51.996;4.458;2023-05-10T08:19:33;15.50;99.90
25112;DHT22;13092;51.996;4.458;2023-05-10T08:22:04;15.60;99.90
25112;DHT22;13092;51.996;4.458;2023-05-10T08:24:35;15.60;99.90
25112;DHT22;13092;51.996;4.458;2023-05-10T08:27:05;15.80;99.90
25112;DHT22;13092;51.996;4.458;2023-05-10T08:29:40;15.80;99.90
25112;DHT22;13092;51.996;4.458;2023-05-10T08:32:19;15.70;99.90
25112;DHT22;13092;51.996;4.458;2023-05-10T08:35:01;15.80;99.90
25112;DHT22;13092;51.996;4.458;2023-05-10T08:37:33;15.70;99.90
25112;DHT22;13092;51.996;4.458;2023-05-10T08:40:02;15.80;99.90
25112;DHT22;13092;51.996;4.458;2023-05-10T08:42:34;15.80;99.90
25112;DHT22;13092;51.996;4.458;2023-05-10T08:45:14;16.10;99.90
25112;DHT22;13092;51.996;4.458;2023-05-10T08:47:44;16.30;99.90
25112;DHT22;13092;51.996;4.458;2023-05-10T08:50:20;16.20;99.90
25112;DHT22;13092;51.996;4.458;2023-05-10T08:52:55;16.10;99.90
25112;DHT22;13092;51.996;4.458;2023-05-10T08:55:25;16.10;99.90
25112;DHT22;13092;51.996;4.458;2023-05-10T08:57:58;16.10;99.90
25112;DHT22;13092;51.996;4.458;2023-05-10T09:00:30;16.00;99.90
25112;DHT22;13092;51.996;4.458;2023-05-10T09:03:00;16.10;99.90
25112;DHT22;13092;51.996;4.458;2023-05-10T09:05:40;16.10;99.90
25112;DHT22;13092;51.996;4.458;2023-05-10T09:08:09;16.20;99.90
25112;DHT22;13092;51.996;4.458;2023-05-10T09:10:44;16.20;99.90
25112;DHT22;13092;51.996;4.458;2023-05-10T09:13:16;16.20;99.90
25112;DHT22;13092;51.996;4.458;2023-05-10T09:15:50;15.90;99.90
25112;DHT22;13092;51.996;4.458;2023-05-10T09:18:20;15.70;99.90
25112;DHT22;13092;51.996;4.458;2023-05-10T09:20:54;16.00;99.90
25112;DHT22;13092;51.996;4.458;2023-05-10T09:23:26;15.90;99.90
25112;DHT22;13092;51.996;4.458;2023-05-10T09:26:07;15.60;99.90
25112;DHT22;13092;51.996;4.458;2023-05-10T09:28:51;15.60;99.90
25112;DHT22;13092;51.996;4.458;2023-05-10T09:31:26;15.80;99.90
25112;DHT22;13092;51.996;4.458;2023-05-10T09:34:20;15.70;99.90
25112;DHT22;13092;51.996;4.458;2023-05-10T09:36:52;15.80;99.90
25112;DHT22;13092;51.996;4.458;2023-05-10T09:39:33;15.80;99.90
25112;DHT22;13092;51.996;4.458;2023-05-10T09:42:09;16.10;99.90
25112;DHT22;13092;51.996;4.458;2023-05-10T09:44:40;16.00;99.90
25112;DHT22;13092;51.996;4.458;2023-05-10T09:47:17;16.00;99.90
25112;DHT22;13092;51.996;4.458;2023-05-10T09:49:49;16.10;99.90
25112;DHT22;13092;51.996;4.458;2023-05-10T09:52:18;16.30;99.90
25112;DHT22;13092;51.996;4.458;2023-05-10T09:54:52;16.50;99.90
25112;DHT22;13092;51.996;4.458;2023-05-10T09:57:24;16.70;99.90
25112;DHT22;13092;51.996;4.458;2023-05-10T10:00:01;16.80;99.90
25112;DHT22;13092;51.996;4.458;2023-05-10T10:02:33;16.90;99.90
25112;DHT22;13092;51.996;4.458;2023-05-10T10:05:01;16.80;99.90
25112;DHT22;13092;51.996;4.458;2023-05-10T10:07:37;16.90;99.90
25112;DHT22;13092;51.996;4.458;2023-05-10T10:10:06;16.80;99.90
25112;DHT22;13092;51.996;4.458;2023-05-10T10:12:41;16.80;99.90
25112;DHT22;13092;51.996;4.458;2023-05-10T10:15:16;17.10;99.90
25112;DHT22;13092;51.996;4.458;2023-05-10T10:17:51;17.10;99.90
25112;DHT22;13092;51.996;4.458;2023-05-10T10:20:21;17.30;99.90
25112;DHT22;13092;51.996;4.458;2023-05-10T10:22:54;17.20;99.90
25112;DHT22;13092;51.996;4.458;2023-05-10T10:25:25;17.00;99.90
25112;DHT22;13092;51.996;4.458;2023-05-10T10:28:02;16.90;99.90
25112;DHT22;13092;51.996;4.458;2023-05-10T10:30:39;16.80;99.90
25112;DHT22;13092;51.996;4.458;2023-05-10T10:33:33;16.70;99.90
25112;DHT22;13092;51.996;4.458;2023-05-10T10:36:05;16.80;99.90
25112;DHT22;13092;51.996;4.458;2023-05-10T10:38:37;16.60;99.90
25112;DHT22;13092;51.996;4.458;2023-05-10T10:41:11;16.40;99.90
25112;DHT22;13092;51.996;4.458;2023-05-10T10:44:25;16.20;99.90
25112;DHT22;13092;51.996;4.458;2023-05-10T10:47:02;16.20;99.90
25112;DHT22;13092;51.996;4.458;2023-05-10T10:49:38;16.20;99.90
25112;DHT22;13092;51.996;4.458;2023-05-10T10:52:20;16.30;99.90
25112;DHT22;13092;51.996;4.458;2023-05-10T10:54:53;16.50;99.90
25112;DHT22;13092;51.996;4.458;2023-05-10T10:57:22;16.50;99.90
25112;DHT22;13092;51.996;4.458;2023-05-10T11:00:21;16.60;99.90
25112;DHT22;13092;51.996;4.458;2023-05-10T11:02:51;16.60;99.90
25112;DHT22;13092;51.996;4.458;2023-05-10T11:05:45;16.70;99.90
25112;DHT22;13092;51.996;4.458;2023-05-10T11:08:25;16.80;99.90
25112;DHT22;13092;51.996;4.458;2023-05-10T11:11:05;16.80;99.90
25112;DHT22;13092;51.996;4.458;2023-05-10T11:13:41;16.70;99.90
25112;DHT22;13092;51.996;4.458;2023-05-10T11:16:15;16.70;99.90
25112;DHT22;13092;51.996;4.458;2023-05-10T11:18:54;16.50;99.90
25112;DHT22;13092;51.996;4.458;2023-05-10T11:21:26;16.60;99.90
25112;DHT22;13092;51.996;4.458;2023-05-10T11:23:56;16.50;99.90
25112;DHT22;13092;51.996;4.458;2023-05-10T11:26:40;16.60;99.90
25112;DHT22;13092;51.996;4.458;2023-05-10T11:29:10;16.80;99.90
25112;DHT22;13092;51.996;4.458;2023-05-10T11:31:44;16.70;99.90
25112;DHT22;13092;51.996;4.458;2023-05-10T11:34:23;16.70;99.90
25112;DHT22;13092;51.996;4.458;2023-05-10T11:36:54;16.70;99.90
25112;DHT22;13092;51.996;4.458;2023-05-10T11:39:26;16.50;99.90
25112;DHT22;13092;51.996;4.458;2023-05-10T11:41:58;16.70;99.90
25112;DHT22;13092;51.996;4.458;2023-05-10T11:44:29;16.80;99.90
25112;DHT22;13092;51.996;4.458;2023-05-10T11:46:59;16.90;99.90
25112;DHT22;13092;51.996;4.458;2023-05-10T11:49:28;16.60;99.90
25112;DHT22;13092;51.996;4.458;2023-05-10T11:52:05;16.90;99.90
25112;DHT22;13092;51.996;4.458;2023-05-10T11:54:34;16.80;99.90
25112;DHT22;13092;51.996;4.458;2023-05-10T11:57:03;16.80;99.90
25112;DHT22;13092;51.996;4.458;2023-05-10T11:59:31;16.80;99.90
25112;DHT22;13092;51.996;4.458;2023-05-10T12:02:00;16.70;99.90
25112;DHT22;13092;51.996;4.458;2023-05-10T12:04:28;16.80;99.90
25112;DHT22;13092;51.996;4.458;2023-05-10T12:06:57;16.90;99.90
25112;DHT22;13092;51.996;4.458;2023-05-10T12:09:27;16.90;99.90
25112;DHT22;13092;51.996;4.458;2023-05-10T12:12:09;16.90;99.90
25112;DHT22;13092;51.996;4.458;2023-05-10T12:14:40;16.80;99.90
25112;DHT22;13092;51.996;4.458;2023-05-10T12:17:11;16.70;99.90
25112;DHT22;13092;51.996;4.458;2023-05-10T12:19:41;16.70;99.90
25112;DHT22;13092;51.996;4.458;2023-05-10T12:22:11;16.50;99.90
25112;DHT22;13092;51.996;4.458;2023-05-10T12:24:41;16.50;99.90
25112;DHT22;13092;51.996;4.458;2023-05-10T12:27:12;16.50;99.90
25112;DHT22;13092;51.996;4.458;2023-05-10T12:29:41;16.40;99.90
25112;DHT22;13092;51.996;4.458;2023-05-10T12:32:14;16.40;99.90
25112;DHT22;13092;51.996;4.458;2023-05-10T12:34:46;16.40;99.90
25112;DHT22;13092;51.996;4.458;2023-05-10T12:37:15;16.60;99.90
25112;DHT22;13092;51.996;4.458;2023-05-10T12:39:45;16.50;99.90
25112;DHT22;13092;51.996;4.458;2023-05-10T12:42:19;16.40;99.90
25112;DHT22;13092;51.996;4.458;2023-05-10T12:44:47;16.40;99.90
25112;DHT22;13092;51.996;4.458;2023-05-10T12:47:16;16.40;99.90
25112;DHT22;13092;51.996;4.458;2023-05-10T12:49:44;16.50;99.90
25112;DHT22;13092;51.996;4.458;2023-05-10T12:52:12;16.40;99.90
25112;DHT22;13092;51.996;4.458;2023-05-10T12:54:43;16.80;99.90
25112;DHT22;13092;51.996;4.458;2023-05-10T12:57:16;16.90;99.90
25112;DHT22;13092;51.996;4.458;2023-05-10T12:59:44;16.90;99.90
25112;DHT22;13092;51.996;4.458;2023-05-10T13:02:12;16.90;99.90
25112;DHT22;13092;51.996;4.458;2023-05-10T13:04:41;17.00;99.90
25112;DHT22;13092;51.996;4.458;2023-05-10T13:07:10;16.90;99.90
25112;DHT22;13092;51.996;4.458;2023-05-10T13:09:41;16.90;99.90
25112;DHT22;13092;51.996;4.458;2023-05-10T13:12:10;16.80;99.90
25112;DHT22;13092;51.996;4.458;2023-05-10T13:14:41;16.70;99.90
25112;DHT22;13092;51.996;4.458;2023-05-10T13:17:11;16.50;99.90
25112;DHT22;13092;51.996;4.458;2023-05-10T13:19:42;16.50;99.90
25112;DHT22;13092;51.996;4.458;2023-05-10T13:22:13;16.60;99.90
25112;DHT22;13092;51.996;4.458;2023-05-10T13:24:51;16.50;99.90
25112;DHT22;13092;51.996;4.458;2023-05-10T13:27:19;16.30;99.90
25112;DHT22;13092;51.996;4.458;2023-05-10T13:29:49;16.60;99.90
25112;DHT22;13092;51.996;4.458;2023-05-10T13:32:17;16.70;99.90
25112;DHT22;13092;51.996;4.458;2023-05-10T13:38:38;16.70;99.90
25112;DHT22;13092;51.996;4.458;2023-05-10T13:41:23;16.70;99.90
25112;DHT22;13092;51.996;4.458;2023-05-10T13:43:56;16.70;99.90
25112;DHT22;13092;51.996;4.458;2023-05-10T13:46:26;16.70;99.90
25112;DHT22;13092;51.996;4.458;2023-05-10T13:59:41;16.70;99.90
25112;DHT22;13092;51.996;4.458;2023-05-10T14:02:11;16.70;99.90
25112;DHT22;13092;51.996;4.458;2023-05-10T14:04:40;16.70;99.90
25112;DHT22;13092;51.996;4.458;2023-05-10T14:07:08;16.80;99.90
25112;DHT22;13092;51.996;4.458;2023-05-10T14:09:37;16.70;99.90
25112;DHT22;13092;51.996;4.458;2023-05-10T14:12:05;16.70;99.90
25112;DHT22;13092;51.996;4.458;2023-05-10T14:14:36;16.80;99.90
25112;DHT22;13092;51.996;4.458;2023-05-10T14:17:04;16.80;99.90
25112;DHT22;13092;51.996;4.458;2023-05-10T14:19:37;16.80;99.90
25112;DHT22;13092;51.996;4.458;2023-05-10T14:22:05;16.90;99.90
25112;DHT22;13092;51.996;4.458;2023-05-10T14:24:34;17.00;99.90
25112;DHT22;13092;51.996;4.458;2023-05-10T14:27:03;16.70;99.90
25112;DHT22;13092;51.996;4.458;2023-05-10T14:29:31;16.80;99.90
25112;DHT22;13092;51.996;4.458;2023-05-10T14:32:00;16.90;99.90
25112;DHT22;13092;51.996;4.458;2023-05-10T14:34:32;16.90;99.90
25112;DHT22;13092;51.996;4.458;2023-05-10T14:37:03;16.90;99.90
25112;DHT22;13092;51.996;4.458;2023-05-10T14:39:37;16.90;99.90
25112;DHT22;13092;51.996;4.458;2023-05-10T14:42:09;16.90;99.90
25112;DHT22;13092;51.996;4.458;2023-05-10T14:44:52;16.80;99.90
25112;DHT22;13092;51.996;4.458;2023-05-10T14:47:28;16.80;99.90
25112;DHT22;13092;51.996;4.458;2023-05-10T14:49:57;16.90;99.90
25112;DHT22;13092;51.996;4.458;2023-05-10T14:52:27;16.90;99.90
25112;DHT22;13092;51.996;4.458;2023-05-10T14:55:01;17.10;99.90
25112;DHT22;13092;51.996;4.458;2023-05-10T14:57:42;16.90;99.90
25112;DHT22;13092;51.996;4.458;2023-05-10T15:00:12;17.00;99.90
25112;DHT22;13092;51.996;4.458;2023-05-10T15:02:51;17.00;99.90
25112;DHT22;13092;51.996;4.458;2023-05-10T15:05:20;17.00;99.90
25112;DHT22;13092;51.996;4.458;2023-05-10T15:07:52;17.10;99.90
25112;DHT22;13092;51.996;4.458;2023-05-10T15:10:26;17.00;99.90
25112;DHT22;13092;51.996;4.458;2023-05-10T15:12:55;17.10;99.90
25112;DHT22;13092;51.996;4.458;2023-05-10T15:15:24;17.00;99.90
25112;DHT22;13092;51.996;4.458;2023-05-10T15:17:52;17.00;99.90
25112;DHT22;13092;51.996;4.458;2023-05-10T15:20:25;17.20;99.90
25112;DHT22;13092;51.996;4.458;2023-05-10T15:22:59;17.00;99.90
25112;DHT22;13092;51.996;4.458;2023-05-10T15:25:28;17.10;99.90
25112;DHT22;13092;51.996;4.458;2023-05-10T15:28:01;17.00;99.90
25112;DHT22;13092;51.996;4.458;2023-05-10T15:30:30;17.00;99.90
25112;DHT22;13092;51.996;4.458;2023-05-10T15:32:58;17.00;99.90
25112;DHT22;13092;51.996;4.458;2023-05-10T15:35:36;16.90;99.90
25112;DHT22;13092;51.996;4.458;2023-05-10T15:38:18;16.90;99.90
25112;DHT22;13092;51.996;4.458;2023-05-10T15:40:46;16.90;99.90
25112;DHT22;13092;51.996;4.458;2023-05-10T15:43:16;17.00;99.90
25112;DHT22;13092;51.996;4.458;2023-05-10T15:45:44;17.00;99.90
25112;DHT22;13092;51.996;4.458;2023-05-10T15:48:13;16.90;99.90
25112;DHT22;13092;51.996;4.458;2023-05-10T15:50:42;17.10;99.90
25112;DHT22;13092;51.996;4.458;2023-05-10T15:53:10;17.10;99.90
25112;DHT22;13092;51.996;4.458;2023-05-10T15:55:40;17.10;99.90
25112;DHT22;13092;51.996;4.458;2023-05-10T15:58:12;17.10;99.90
25112;DHT22;13092;51.996;4.458;2023-05-10T16:00:47;17.10;99.90
25112;DHT22;13092;51.996;4.458;2023-05-10T16:03:15;17.10;99.90
25112;DHT22;13092;51.996;4.458;2023-05-10T16:06:05;17.10;99.90
25112;DHT22;13092;51.996;4.458;2023-05-10T16:08:33;17.00;99.90
25112;DHT22;13092;51.996;4.458;2023-05-10T16:11:06;17.00;99.90
25112;DHT22;13092;51.996;4.458;2023-05-10T16:13:34;16.90;99.90